Time;durP1;ratioP1;P1;durP2;ratioP2;P2;SDS_P1;SDS_P2;PMS_P1;PMS_P2;Temp;Humidity;BMP_temperature;BMP_pressure;BME280_temperature;BME280_humidity;BME280_pressure;Samples;Min_cycle;Max_cycle;Signal;HPM_P1;HPM_P2
2022/11/25 00:02:02;;;;;;;82.70;33.00;;;;;;;-0.15;87.50;100498.63;105536;1301;24244;-68
2022/11/25 00:04:38;;;;;;;85.30;31.90;;;;;;;-0.14;87.33;100497.43;105538;1288;22459;-71
2022/11/25 00:07:14;;;;;;;77.20;29.10;;;;;;;-0.13;87.49;100494.54;105499;1302;22455;-69
2022/11/25 00:09:48;;;;;;;88.20;31.40;;;;;;;-0.12;87.58;100498.14;105530;1286;25956;-68
2022/11/25 00:12:25;;;;;;;85.60;35.40;;;;;;;-0.14;87.21;100501.37;105531;1287;22472;-68
2022/11/25 00:14:59;;;;;;;95.30;33.40;;;;;;;-0.15;87.36;100500.68;105515;1303;22465;-70
2022/11/25 00:17:36;;;;;;;87.20;31.90;;;;;;;-0.14;87.51;100503.11;105515;1294;22462;-71
2022/11/25 00:20:12;;;;;;;94.60;35.00;;;;;;;-0.10;87.49;100499.35;105527;1303;22494;-69
2022/11/25 00:22:47;;;;;;;86.60;38.20;;;;;;;-0.06;87.48;100503.31;105529;1296;22532;-70
2022/11/25 00:25:22;;;;;;;94.10;40.70;;;;;;;-0.06;87.62;100506.05;105521;1281;22469;-68
2022/11/25 00:27:57;;;;;;;88.30;36.30;;;;;;;-0.04;87.72;100504.73;105539;1303;22473;-68
2022/11/25 00:30:31;;;;;;;97.00;40.20;;;;;;;-0.03;87.72;100505.41;105531;1303;22491;-68
2022/11/25 00:33:12;;;;;;;101.30;36.50;;;;;;;-0.05;87.65;100507.96;105478;1287;22441;-68
2022/11/25 00:35:52;;;;;;;93.10;37.30;;;;;;;-0.07;87.44;100510.00;105485;1303;22453;-68
2022/11/25 00:38:29;;;;;;;82.20;34.10;;;;;;;-0.07;87.43;100509.31;105518;1287;22459;-68
2022/11/25 00:46:47;;;;;;;90.90;35.70;;;;;;;-0.03;87.68;100515.35;105506;1285;22476;-68
2022/11/25 00:49:21;;;;;;;90.50;33.90;;;;;;;-0.02;87.63;100514.67;105537;1291;24238;-69
2022/11/25 00:51:56;;;;;;;90.40;36.00;;;;;;;-0.04;87.52;100512.95;105494;1294;22458;-71
2022/11/25 00:54:34;;;;;;;98.90;33.90;;;;;;;-0.07;87.59;100512.05;105498;1280;22458;-69
2022/11/25 00:57:08;;;;;;;99.20;34.40;;;;;;;-0.09;87.59;100514.98;105494;1303;24264;-70
2022/11/25 00:59:42;;;;;;;84.10;33.10;;;;;;;-0.07;87.65;100518.06;105511;1301;22677;-70
2022/11/25 01:02:17;;;;;;;96.90;35.50;;;;;;;-0.05;87.68;100518.60;105452;1291;24444;-68
2022/11/25 01:04:51;;;;;;;95.20;34.40;;;;;;;-0.05;87.47;100520.48;105541;1297;22463;-69
2022/11/25 01:07:27;;;;;;;95.20;35.70;;;;;;;-0.06;87.64;100519.95;105498;1303;22514;-69
2022/11/25 01:10:01;;;;;;;94.80;36.30;;;;;;;-0.05;87.65;100523.40;105506;1284;22467;-68
2022/11/25 01:12:37;;;;;;;99.60;35.10;;;;;;;-0.06;87.68;100525.95;105490;1304;22466;-71
2022/11/25 01:15:14;;;;;;;93.60;33.50;;;;;;;-0.09;87.70;100531.61;105425;1285;22513;-68
2022/11/25 01:17:48;;;;;;;88.60;33.80;;;;;;;-0.11;87.59;100531.06;105422;1296;22479;-69
2022/11/25 01:20:22;;;;;;;102.30;34.70;;;;;;;-0.10;87.70;100532.97;105528;1282;25236;-67
2022/11/25 01:22:57;;;;;;;99.80;32.40;;;;;;;-0.07;87.52;100533.32;105520;1302;22467;-67
2022/11/25 01:25:36;;;;;;;87.30;32.20;;;;;;;-0.05;87.53;100537.30;105523;1303;24307;-70
2022/11/25 01:28:15;;;;;;;83.20;31.60;;;;;;;-0.02;87.80;100535.42;105525;1292;24258;-68
2022/11/25 01:31:00;;;;;;;90.30;30.90;;;;;;;-0.03;87.54;100538.33;105472;1290;23964;-70
2022/11/25 01:33:34;;;;;;;90.50;32.40;;;;;;;-0.05;87.53;100537.81;105525;1282;22459;-68
2022/11/25 01:36:16;;;;;;;98.90;35.70;;;;;;;-0.06;87.61;100545.84;105503;1281;25839;-68
2022/11/25 01:38:56;;;;;;;94.80;31.10;;;;;;;-0.06;87.73;100537.27;105482;1303;22470;-69
2022/11/25 01:41:34;;;;;;;93.00;34.90;;;;;;;-0.05;87.77;100542.09;105495;1303;22462;-70
2022/11/25 01:44:15;;;;;;;84.70;34.90;;;;;;;-0.03;88.07;100539.18;105513;1303;22474;-68
2022/11/25 01:47:04;;;;;;;98.30;34.00;;;;;;;0.02;87.96;100538.02;105524;1274;22443;-70
2022/11/25 01:49:43;;;;;;;97.20;35.30;;;;;;;0.03;88.02;100535.29;105537;1291;22448;-70
2022/11/25 01:52:28;;;;;;;90.00;34.20;;;;;;;0.02;87.90;100537.17;105399;1302;22473;-69
2022/11/25 01:55:07;;;;;;;103.00;34.10;;;;;;;0.02;87.97;100538.54;105545;1289;22587;-68
2022/11/25 01:57:43;;;;;;;111.40;35.60;;;;;;;-0.03;87.94;100541.59;105500;1300;22479;-68
2022/11/25 02:00:19;;;;;;;100.60;34.00;;;;;;;-0.04;87.78;100545.54;105543;1300;24261;-68
2022/11/25 02:02:57;;;;;;;96.00;33.80;;;;;;;-0.03;87.70;100543.14;105412;1303;22452;-69
2022/11/25 02:05:35;;;;;;;94.80;34.00;;;;;;;0.01;88.02;100543.17;105496;1303;23961;-69
2022/11/25 02:08:12;;;;;;;105.60;35.80;;;;;;;0.04;87.95;100548.14;105530;1304;22473;-70
2022/11/25 02:10:48;;;;;;;90.90;33.30;;;;;;;0.03;87.73;100551.58;105528;1303;22532;-69
2022/11/25 02:13:22;;;;;;;100.70;33.50;;;;;;;-0.00;87.79;100556.36;105495;1303;22839;-68
2022/11/25 02:15:58;;;;;;;94.60;31.50;;;;;;;-0.03;87.85;100556.86;105492;1302;22478;-69
2022/11/25 02:18:33;;;;;;;102.60;33.10;;;;;;;-0.07;87.84;100554.08;105494;1295;22658;-67
2022/11/25 02:21:08;;;;;;;98.70;32.40;;;;;;;-0.07;87.81;100550.81;105386;1302;22493;-69
2022/11/25 02:23:45;;;;;;;95.30;34.30;;;;;;;-0.06;88.15;100551.67;105541;1303;22469;-69
2022/11/25 02:26:21;;;;;;;98.60;36.40;;;;;;;-0.05;87.96;100545.36;105521;1291;25264;-68
2022/11/25 02:28:55;;;;;;;106.20;37.00;;;;;;;-0.01;88.11;100547.95;105534;1287;22461;-67
2022/11/25 02:31:31;;;;;;;92.40;32.20;;;;;;;0.02;88.10;100543.69;105513;1281;22470;-68
2022/11/25 02:34:08;;;;;;;103.50;37.30;;;;;;;0.02;87.95;100541.12;105499;1285;23792;-68
2022/11/25 02:36:42;;;;;;;111.50;39.20;;;;;;;0.02;87.98;100540.25;105503;1303;22471;-68
2022/11/25 02:39:20;;;;;;;109.90;34.70;;;;;;;0.01;88.08;100543.84;105487;1284;22442;-69
2022/11/25 02:41:56;;;;;;;95.70;33.90;;;;;;;-0.00;88.28;100546.25;105512;1281;22477;-68
2022/11/25 02:44:30;;;;;;;93.00;34.90;;;;;;;0.02;88.05;100547.80;105526;1284;22599;-68
2022/11/25 02:47:10;;;;;;;105.40;38.60;;;;;;;0.03;88.11;100549.00;105495;1303;22588;-69
2022/11/25 02:49:46;;;;;;;98.90;35.20;;;;;;;0.06;88.15;100554.69;105502;1303;22527;-70
2022/11/25 02:52:25;;;;;;;90.90;31.30;;;;;;;0.06;88.14;100550.41;105494;1303;22455;-71
2022/11/25 02:55:02;;;;;;;93.20;32.70;;;;;;;0.05;88.07;100554.35;105531;1303;22462;-69
2022/11/25 02:57:39;;;;;;;97.60;32.90;;;;;;;0.03;88.04;100550.20;105498;1288;22513;-68
2022/11/25 03:00:16;;;;;;;95.40;30.70;;;;;;;-0.03;87.96;100552.39;105484;1291;25385;-68
2022/11/25 03:02:50;;;;;;;103.40;32.90;;;;;;;-0.03;88.15;100554.27;105516;1280;22446;-70
2022/11/25 03:05:24;;;;;;;101.50;35.00;;;;;;;0.01;88.29;100559.30;105500;1294;22854;-69
2022/11/25 03:07:58;;;;;;;108.00;37.70;;;;;;;0.06;88.29;100554.69;105539;1282;25379;-69
2022/11/25 03:10:32;;;;;;;100.00;35.90;;;;;;;0.11;88.40;100557.30;105510;1301;25223;-68
2022/11/25 03:13:10;;;;;;;108.70;37.40;;;;;;;0.15;88.60;100556.14;105509;1302;22459;-68
2022/11/25 03:15:49;;;;;;;94.00;33.20;;;;;;;0.16;88.32;100554.95;105491;1287;22469;-68
2022/11/25 03:18:28;;;;;;;84.10;34.00;;;;;;;0.15;88.32;100558.54;105517;1303;22464;-68
2022/11/25 03:21:07;;;;;;;93.90;31.80;;;;;;;0.16;88.49;100558.71;105540;1303;22471;-68
2022/11/25 03:23:42;;;;;;;90.00;31.90;;;;;;;0.16;88.21;100558.38;105439;1303;22598;-69
2022/11/25 03:26:21;;;;;;;82.40;31.80;;;;;;;0.18;88.13;100563.02;105525;1286;22509;-69
2022/11/25 03:29:00;;;;;;;;;;;;;;;0.21;88.34;100563.22;105559;1298;22754;-68
2022/11/25 03:31:36;;;;;;;81.50;30.60;;;;;;;0.22;88.42;100564.94;105505;1284;25220;-68
2022/11/25 03:34:11;;;;;;;85.30;29.50;;;;;;;0.22;88.15;100566.64;105512;1289;22466;-68
2022/11/25 03:36:48;;;;;;;80.90;29.30;;;;;;;0.18;88.20;100563.02;105392;1303;22491;-69
2022/11/25 03:39:24;;;;;;;76.70;28.80;;;;;;;0.15;88.17;100569.17;105519;1301;22469;-68
2022/11/25 03:41:59;;;;;;;84.10;31.60;;;;;;;0.14;88.27;100571.23;105503;1287;22508;-67
2022/11/25 03:44:35;;;;;;;76.10;32.10;;;;;;;0.13;87.92;100574.81;105511;1303;22804;-70
2022/11/25 03:47:08;;;;;;;79.90;30.20;;;;;;;0.14;88.20;100574.30;105490;1288;22445;-68
2022/11/25 03:49:44;;;;;;;77.00;29.70;;;;;;;0.17;88.52;100576.39;105480;1303;22518;-69
2022/11/25 03:52:18;;;;;;;73.30;30.00;;;;;;;0.19;88.64;100581.20;105516;1304;22509;-69
2022/11/25 03:54:52;;;;;;;79.80;32.10;;;;;;;0.21;88.56;100581.58;105491;1287;25276;-67
2022/11/25 03:57:26;;;;;;;73.60;29.40;;;;;;;0.22;88.61;100579.86;105517;1275;22461;-68
2022/11/25 04:00:00;;;;;;;78.80;29.10;;;;;;;0.22;88.59;100581.75;105488;1304;22499;-68
2022/11/25 04:02:34;;;;;;;79.30;31.40;;;;;;;0.21;88.55;100588.27;105518;1303;22471;-68
2022/11/25 04:05:14;;;;;;;74.10;28.50;;;;;;;0.23;88.62;100587.23;105559;1300;22454;-68
2022/11/25 04:07:50;;;;;;;78.20;30.90;;;;;;;0.28;88.73;100588.47;105549;1303;24340;-68
2022/11/25 04:10:25;;;;;;;75.50;31.80;;;;;;;0.33;88.55;100592.12;105534;1292;22461;-69
2022/11/25 04:13:02;;;;;;;75.40;29.60;;;;;;;0.37;88.55;100594.38;105480;1288;24256;-70
2022/11/25 04:15:37;;;;;;;76.10;31.50;;;;;;;0.38;88.65;100592.32;105536;1295;22465;-71
2022/11/25 04:18:14;;;;;;;86.70;32.30;;;;;;;0.40;88.67;100590.80;105529;1288;22695;-69
2022/11/25 04:20:48;;;;;;;78.10;30.50;;;;;;;0.37;88.44;100590.60;105490;1288;22474;-68
2022/11/25 04:23:22;;;;;;;97.60;32.60;;;;;;;0.34;88.58;100596.08;105507;1285;22458;-71
2022/11/25 04:25:58;;;;;;;76.50;29.70;;;;;;;0.32;88.31;100597.95;105481;1304;22463;-70
2022/11/25 04:28:36;;;;;;;74.80;28.90;;;;;;;0.33;88.54;100599.66;105527;1288;22451;-70
2022/11/25 04:31:11;;;;;;;79.80;30.10;;;;;;;0.35;88.36;100595.91;105509;1292;22490;-70
2022/11/25 04:33:47;;;;;;;73.60;28.30;;;;;;;0.39;88.60;100598.33;105534;1301;22479;-68
2022/11/25 04:36:21;;;;;;;77.10;31.90;;;;;;;0.41;88.56;100596.47;105517;1300;24242;-69
2022/11/25 04:38:58;;;;;;;78.40;30.10;;;;;;;0.42;88.53;100602.13;105490;1307;22464;-68
2022/11/25 04:41:33;;;;;;;71.20;28.90;;;;;;;0.38;88.37;100610.18;105497;1304;22476;-70
2022/11/25 04:44:14;;;;;;;82.30;32.10;;;;;;;0.33;88.31;100619.06;105500;1307;22437;-68
2022/11/25 04:46:51;;;;;;;86.80;31.40;;;;;;;0.31;88.28;100621.80;105493;1307;22776;-68
2022/11/25 04:49:32;;;;;;;70.30;29.50;;;;;;;0.33;88.22;100622.48;105480;1309;22467;-69
2022/11/25 04:52:08;;;;;;;74.00;29.60;;;;;;;0.36;88.50;100626.13;105489;1307;22466;-68
2022/11/25 04:54:43;;;;;;;73.30;30.90;;;;;;;0.38;88.59;100628.02;105530;1307;22472;-68
2022/11/25 04:57:18;;;;;;;77.60;30.30;;;;;;;0.40;88.65;100634.23;105508;1285;24340;-68
2022/11/25 04:59:54;;;;;;;71.90;27.90;;;;;;;0.40;88.65;100630.79;105514;1300;22460;-69
2022/11/25 05:02:30;;;;;;;75.20;28.40;;;;;;;0.39;88.66;100629.05;105467;1304;22472;-70
2022/11/25 05:05:07;;;;;;;73.40;30.60;;;;;;;0.37;88.49;100627.67;105502;1296;22469;-69
2022/11/25 05:07:41;;;;;;;79.20;30.00;;;;;;;0.37;88.52;100625.61;105433;1287;22459;-70
2022/11/25 05:10:16;;;;;;;67.60;30.40;;;;;;;0.40;88.79;100625.11;105512;1304;22461;-68
2022/11/25 05:12:50;;;;;;;67.20;27.10;;;;;;;0.42;88.44;100628.73;105500;1304;22475;-69
2022/11/25 05:15:26;;;;;;;72.90;29.20;;;;;;;0.45;88.68;100632.20;105501;1304;22648;-67
2022/11/25 05:18:00;;;;;;;74.70;31.20;;;;;;;0.48;88.67;100631.86;105488;1286;22466;-70
2022/11/25 05:20:34;;;;;;;71.50;30.00;;;;;;;0.46;88.57;100634.44;105487;1290;22878;-68
2022/11/25 05:23:09;;;;;;;77.40;31.60;;;;;;;0.43;88.50;100641.27;105472;1303;22532;-68
2022/11/25 05:25:46;;;;;;;80.90;30.30;;;;;;;0.41;88.74;100643.32;105415;1304;25381;-69
2022/11/25 05:28:20;;;;;;;75.60;29.00;;;;;;;0.42;88.51;100644.02;105492;1289;25397;-68
2022/11/25 05:30:56;;;;;;;70.70;27.60;;;;;;;0.45;88.59;100646.45;105474;1300;22461;-68
2022/11/25 05:33:30;;;;;;;76.90;29.10;;;;;;;0.49;88.64;100646.97;105498;1304;24042;-69
2022/11/25 05:36:05;;;;;;;73.30;28.80;;;;;;;0.53;88.85;100644.77;105495;1304;24892;-67
2022/11/25 05:38:39;;;;;;;64.30;26.20;;;;;;;0.54;88.67;100647.70;105445;1287;22621;-67
2022/11/25 05:41:16;;;;;;;67.90;26.60;;;;;;;0.52;88.51;100648.20;105439;1303;22912;-69
2022/11/25 05:43:52;;;;;;;75.90;28.50;;;;;;;0.47;88.28;100650.75;105484;1304;22469;-70
2022/11/25 05:46:30;;;;;;;59.00;24.40;;;;;;;0.44;88.14;100653.98;105473;1304;22594;-70
2022/11/25 05:49:06;;;;;;;65.30;29.10;;;;;;;0.41;88.21;100652.94;105476;1304;24219;-68
2022/11/25 05:51:42;;;;;;;59.90;25.00;;;;;;;0.42;88.28;100655.33;105472;1292;22474;-68
2022/11/25 05:54:17;;;;;;;65.70;27.00;;;;;;;0.42;88.29;100653.27;105495;1304;24255;-69
2022/11/25 05:56:51;;;;;;;63.80;26.90;;;;;;;0.43;88.39;100654.66;105463;1283;22485;-68
2022/11/25 05:59:25;;;;;;;74.30;28.60;;;;;;;0.44;88.42;100654.33;105501;1303;22487;-68
2022/11/25 06:01:59;;;;;;;67.10;26.80;;;;;;;0.46;88.60;100657.44;105497;1288;23982;-68
2022/11/25 06:04:36;;;;;;;68.00;28.40;;;;;;;0.45;88.62;100662.23;105472;1303;22462;-68
2022/11/25 06:07:11;;;;;;;71.20;28.30;;;;;;;0.44;88.37;100659.30;105275;1280;283048;-69
2022/11/25 06:09:45;;;;;;;71.80;28.70;;;;;;;0.45;88.36;100663.10;105473;1303;22461;-68
2022/11/25 06:12:19;;;;;;;74.40;30.30;;;;;;;0.48;88.40;100666.36;105454;1290;25916;-69
2022/11/25 06:14:54;;;;;;;70.20;26.60;;;;;;;0.51;88.37;100669.66;105485;1289;22464;-69
2022/11/25 06:17:33;;;;;;;64.00;25.10;;;;;;;0.54;88.68;100667.95;105468;1294;22462;-69
2022/11/25 06:20:14;;;;;;;77.90;25.70;;;;;;;0.57;88.65;100666.61;105484;1302;22469;-69
2022/11/25 06:22:54;;;;;;;63.40;25.40;;;;;;;0.51;88.10;100671.71;105508;1275;25258;-69
2022/11/25 06:25:33;;;;;;;71.70;28.60;;;;;;;0.47;88.33;100673.23;105487;1293;22480;-68
2022/11/25 06:28:10;;;;;;;74.90;29.30;;;;;;;0.47;88.44;100674.77;105489;1289;22469;-68
2022/11/25 06:30:45;;;;;;;52.80;24.00;;;;;;;0.51;88.32;100673.09;105482;1303;22833;-71
2022/11/25 06:33:24;;;;;;;67.00;26.50;;;;;;;0.57;88.40;100674.16;105510;1285;25470;-69
2022/11/25 06:36:00;;;;;;;62.70;25.50;;;;;;;0.61;88.47;100671.80;105490;1295;22515;-68
2022/11/25 06:38:40;;;;;;;61.60;24.90;;;;;;;0.59;88.08;100668.85;105477;1303;22464;-69
2022/11/25 06:41:15;;;;;;;65.50;23.70;;;;;;;0.57;88.13;100674.50;105488;1300;22451;-69
2022/11/25 06:43:49;;;;;;;72.20;27.70;;;;;;;0.52;88.04;100673.77;105479;1284;22547;-68
2022/11/25 06:46:27;;;;;;;60.60;24.60;;;;;;;0.49;88.07;100676.35;105451;1303;24350;-68
2022/11/25 06:49:03;;;;;;;63.20;25.80;;;;;;;0.50;88.17;100676.00;105469;1288;22465;-68
2022/11/25 06:51:39;;;;;;;61.70;24.70;;;;;;;0.52;88.22;100677.39;105472;1289;22467;-68
2022/11/25 06:54:13;;;;;;;62.10;25.50;;;;;;;0.56;88.17;100681.37;105479;1294;22464;-69
2022/11/25 06:56:52;;;;;;;58.60;24.10;;;;;;;0.57;88.22;100685.31;105474;1284;22503;-69
2022/11/25 06:59:26;;;;;;;53.30;22.70;;;;;;;0.57;88.18;100690.46;105502;1303;22482;-69
2022/11/25 07:02:01;;;;;;;60.70;22.70;;;;;;;0.55;88.05;100690.45;105424;1304;22606;-69
2022/11/25 07:04:37;;;;;;;59.90;24.50;;;;;;;0.52;88.00;100688.54;105516;1290;22482;-71
2022/11/25 07:07:11;;;;;;;58.30;24.20;;;;;;;0.51;87.90;100688.02;105477;1303;22613;-70
2022/11/25 07:09:46;;;;;;;62.80;27.50;;;;;;;0.51;87.76;100691.63;105494;1289;22527;-70
2022/11/25 07:12:24;;;;;;;64.60;26.90;;;;;;;0.55;87.94;100695.95;105483;1300;22662;-68
2022/11/25 07:15:00;;;;;;;61.20;25.60;;;;;;;0.56;87.86;100697.33;105481;1303;22477;-70
2022/11/25 07:17:41;;;;;;;63.40;25.50;;;;;;;0.56;88.03;100697.67;105461;1286;22709;-68
2022/11/25 07:20:24;;;;;;;63.40;25.80;;;;;;;0.56;87.90;100697.67;105483;1303;22740;-68
2022/11/25 07:22:59;;;;;;;62.70;27.20;;;;;;;0.55;87.83;100698.69;105481;1300;22471;-69
2022/11/25 07:25:37;;;;;;;62.00;25.10;;;;;;;0.54;88.00;100700.39;105528;1298;22470;-68
2022/11/25 07:28:14;;;;;;;52.70;23.10;;;;;;;0.53;87.75;100704.50;105445;1283;24233;-69
2022/11/25 07:30:48;;;;;;;66.00;28.90;;;;;;;0.55;87.97;100705.73;105493;1284;22455;-69
2022/11/25 07:33:24;;;;;;;66.50;26.40;;;;;;;0.57;87.89;100706.27;105464;1301;24228;-69
2022/11/25 07:36:00;;;;;;;61.60;27.20;;;;;;;0.59;87.96;100708.00;105433;1289;22898;-71
2022/11/25 07:38:37;;;;;;;72.70;28.40;;;;;;;0.63;88.08;100706.30;105447;1303;22479;-70
2022/11/25 07:41:16;;;;;;;;;;;;;;;0.61;88.00;100708.36;105409;1282;25398;-70
2022/11/25 07:43:52;;;;;;;73.40;29.70;;;;;;;0.58;87.92;100705.92;105424;1280;25239;-70
2022/11/25 07:46:30;;;;;;;;;;;;;;;0.56;88.11;100709.35;105435;1291;25397;-69
2022/11/25 07:49:10;;;;;;;76.60;28.50;;;;;;;0.54;88.29;100707.77;105412;1303;24267;-69
2022/11/25 07:51:52;;;;;;;76.70;30.40;;;;;;;0.51;88.15;100711.55;105425;1303;22534;-69
2022/11/25 07:54:28;;;;;;;75.30;33.80;;;;;;;0.53;88.06;100713.77;105432;1295;22485;-69
2022/11/25 07:57:05;;;;;;;86.10;30.70;;;;;;;0.55;88.02;100712.77;105413;1303;22490;-69
2022/11/25 07:59:41;;;;;;;81.70;30.70;;;;;;;0.60;88.13;100710.91;105442;1303;22511;-70
2022/11/25 08:02:17;;;;;;;71.60;30.30;;;;;;;0.65;88.12;100715.08;105407;1282;22585;-71
2022/11/25 08:04:54;;;;;;;75.30;29.60;;;;;;;0.69;88.22;100718.54;105414;1288;25359;-68
2022/11/25 08:07:33;;;;;;;81.80;30.60;;;;;;;0.70;88.13;100718.91;105415;1289;25411;-68
2022/11/25 08:10:15;;;;;;;80.30;31.90;;;;;;;0.69;88.10;100720.63;105367;1303;22491;-68
2022/11/25 08:12:52;;;;;;;82.30;32.80;;;;;;;0.70;88.11;100726.13;105358;1303;22454;-69
2022/11/25 08:15:27;;;;;;;76.80;28.80;;;;;;;0.70;88.19;100728.52;105413;1293;22469;-68
2022/11/25 08:18:07;;;;;;;82.80;31.30;;;;;;;0.71;88.16;100730.93;105397;1284;22507;-69
2022/11/25 08:20:44;;;;;;;84.80;32.40;;;;;;;0.76;88.15;100734.06;105388;1280;22440;-68
2022/11/25 08:23:18;;;;;;;83.50;31.50;;;;;;;0.82;88.32;100734.10;105359;1303;22471;-69
2022/11/25 08:25:55;;;;;;;78.10;33.00;;;;;;;0.91;88.38;100733.81;105424;1303;22452;-70
2022/11/25 08:28:29;;;;;;;68.00;29.20;;;;;;;0.96;88.13;100732.66;105409;1296;22460;-70
2022/11/25 08:31:07;;;;;;;75.30;29.70;;;;;;;0.98;87.93;100730.95;105403;1288;22496;-69
2022/11/25 08:33:41;;;;;;;74.20;31.30;;;;;;;1.02;88.00;100734.41;105418;1292;22462;-70
2022/11/25 08:36:15;;;;;;;115.10;52.80;;;;;;;1.05;88.03;100736.16;105374;1303;24260;-71
2022/11/25 08:38:58;;;;;;;98.00;40.20;;;;;;;1.07;88.00;100740.96;105423;1293;23850;-71
2022/11/25 08:41:37;;;;;;;90.60;37.50;;;;;;;1.07;88.01;100738.05;105406;1289;22474;-70
2022/11/25 08:44:15;;;;;;;81.80;31.20;;;;;;;1.10;87.75;100745.64;105477;1302;25434;-69
2022/11/25 08:46:55;;;;;;;71.20;30.60;;;;;;;1.13;87.73;100747.54;105479;1281;25486;-68
2022/11/25 08:49:34;;;;;;;74.60;33.60;;;;;;;1.17;87.45;100752.04;105401;1303;25396;-69
2022/11/25 08:52:14;;;;;;;72.10;30.30;;;;;;;1.17;87.42;100756.50;105385;1285;22557;-67
2022/11/25 08:54:51;;;;;;;67.10;28.60;;;;;;;1.19;87.35;100761.16;105386;1303;22492;-69
2022/11/25 08:57:31;;;;;;;75.40;30.00;;;;;;;1.17;87.14;100765.61;105409;1285;23809;-68
2022/11/25 09:00:11;;;;;;;73.70;30.90;;;;;;;1.14;87.03;100768.17;105405;1303;22466;-69
2022/11/25 09:02:48;;;;;;;72.30;29.30;;;;;;;1.13;87.17;100767.30;105359;1303;22875;-69
2022/11/25 09:05:22;;;;;;;75.90;31.50;;;;;;;1.09;86.82;100768.48;105421;1303;22471;-69
2022/11/25 09:08:02;;;;;;;71.70;30.20;;;;;;;1.09;86.82;100762.47;105395;1276;25226;-69
2022/11/25 09:10:42;;;;;;;70.00;29.80;;;;;;;1.12;86.62;100765.91;105419;1281;22471;-67
2022/11/25 09:13:19;;;;;;;67.50;29.50;;;;;;;1.11;86.68;100769.52;105418;1303;22516;-70
2022/11/25 09:15:55;;;;;;;73.20;28.70;;;;;;;1.10;86.64;100773.13;105384;1303;22460;-68
2022/11/25 09:18:31;;;;;;;85.60;29.50;;;;;;;1.09;86.66;100767.80;105422;1303;25382;-71
2022/11/25 09:21:12;;;;;;;80.00;31.30;;;;;;;1.08;86.74;100765.38;105376;1275;22476;-70
2022/11/25 09:23:51;;;;;;;78.80;31.40;;;;;;;1.09;86.90;100761.27;105459;1303;24268;-69
2022/11/25 09:26:28;;;;;;;78.90;30.50;;;;;;;1.05;86.83;100760.05;105428;1291;22536;-70
2022/11/25 09:29:02;;;;;;;74.80;31.10;;;;;;;1.04;86.82;100759.70;105435;1303;22471;-70
2022/11/25 09:31:36;;;;;;;69.60;29.60;;;;;;;1.06;86.85;100762.79;105396;1280;22462;-71
2022/11/25 09:34:10;;;;;;;79.90;31.20;;;;;;;1.08;86.76;100767.61;105460;1291;22560;-69
2022/11/25 09:36:46;;;;;;;79.00;29.70;;;;;;;1.13;86.88;100762.15;105416;1293;23777;-69
2022/11/25 09:39:20;;;;;;;84.80;32.40;;;;;;;1.16;86.85;100767.67;105462;1302;22478;-68
2022/11/25 09:48:12;;;;;;;78.00;30.70;;;;;;;1.14;86.80;100769.02;105405;1303;22471;-68
2022/11/25 09:51:00;;;;;;;88.80;33.70;;;;;;;1.12;86.91;100770.04;105427;1284;22462;-68
2022/11/25 09:53:47;;;;;;;86.10;30.80;;;;;;;1.12;86.82;100771.41;105385;1303;22555;-68
2022/11/25 09:56:31;;;;;;;69.40;29.90;;;;;;;1.15;86.73;100773.16;105400;1303;22479;-68
2022/11/25 09:59:10;;;;;;;84.00;31.50;;;;;;;1.18;86.79;100779.71;105408;1290;22469;-70
2022/11/25 10:01:50;;;;;;;82.70;32.90;;;;;;;1.20;86.70;100774.92;105380;1285;25893;-68
2022/11/25 10:04:31;;;;;;;83.30;30.90;;;;;;;1.23;87.06;100777.34;105472;1276;25326;-69
2022/11/25 10:07:08;;;;;;;82.20;31.60;;;;;;;1.27;86.88;100780.98;105401;1303;24245;-71
2022/11/25 10:09:45;;;;;;;82.50;33.70;;;;;;;1.25;86.64;100779.41;105464;1295;22482;-70
2022/11/25 10:12:24;;;;;;;79.90;32.40;;;;;;;1.23;86.83;100778.04;105423;1295;22498;-70
2022/11/25 10:15:01;;;;;;;79.70;33.10;;;;;;;1.24;86.76;100779.25;105438;1295;22032;-69
2022/11/25 10:17:43;;;;;;;72.10;30.60;;;;;;;1.28;86.62;100784.59;105408;1303;22476;-69
2022/11/25 10:20:22;;;;;;;70.20;30.60;;;;;;;1.33;86.59;100782.56;105476;1285;22468;-70
2022/11/25 10:23:00;;;;;;;74.30;31.60;;;;;;;1.34;86.45;100787.73;105395;1291;25430;-69
2022/11/25 10:25:39;;;;;;;76.20;32.40;;;;;;;1.37;86.55;100788.26;105432;1303;22474;-70
2022/11/25 10:28:21;;;;;;;75.50;32.20;;;;;;;1.42;86.75;100787.77;105434;1303;22529;-70
2022/11/25 10:31:05;;;;;;;83.90;35.90;;;;;;;1.45;86.80;100787.79;105408;1295;25885;-69
2022/11/25 10:33:45;;;;;;;80.60;32.40;;;;;;;1.46;86.70;100785.89;105428;1303;22482;-70
2022/11/25 10:36:24;;;;;;;69.30;30.60;;;;;;;1.49;86.69;100785.75;105432;1291;22507;-70
2022/11/25 10:39:07;;;;;;;79.10;32.70;;;;;;;1.52;86.84;100780.09;105382;1303;23798;-70
2022/11/25 10:41:49;;;;;;;75.50;30.90;;;;;;;1.59;86.68;100787.36;105393;1296;22461;-69
2022/11/25 10:44:28;;;;;;;72.00;34.80;;;;;;;1.63;86.71;100790.64;105483;1281;25930;-68
2022/11/25 10:47:23;;;;;;;71.60;31.70;;;;;;;1.66;86.65;100790.46;105438;1303;22476;-68
2022/11/25 10:50:11;;;;;;;81.80;35.40;;;;;;;1.68;86.43;100792.38;105458;1295;22474;-69
2022/11/25 10:52:51;;;;;;;84.70;37.60;;;;;;;1.66;86.39;100793.57;105400;1303;22463;-72
2022/11/25 10:55:27;;;;;;;79.50;37.20;;;;;;;1.63;86.26;100797.02;105442;1281;22480;-70
2022/11/25 10:58:01;;;;;;;78.80;34.40;;;;;;;1.60;86.11;100796.13;105420;1296;23853;-72
2022/11/25 11:00:41;;;;;;;66.30;31.90;;;;;;;1.59;86.14;100801.27;105421;1283;22497;-69
2022/11/25 11:03:21;;;;;;;73.70;34.70;;;;;;;1.61;86.13;100796.81;105389;1303;22752;-70
2022/11/25 11:05:59;;;;;;;;;;;;;;;1.60;85.96;100798.36;105433;1295;22526;-69
2022/11/25 11:08:40;;;;;;;74.80;33.80;;;;;;;1.59;86.09;100799.39;105428;1303;22457;-69
2022/11/25 11:11:19;;;;;;;78.50;34.40;;;;;;;1.59;86.12;100798.19;105342;1300;22469;-69
2022/11/25 11:14:15;;;;;;;71.20;30.00;;;;;;;1.60;86.15;100795.95;105445;1303;22462;-72
2022/11/25 11:16:57;;;;;;;78.90;34.10;;;;;;;1.55;86.03;100798.51;105389;1281;22469;-69
2022/11/25 11:19:32;;;;;;;71.10;31.90;;;;;;;1.51;86.17;100798.64;105427;1284;25300;-69
2022/11/25 11:22:24;;;;;;;79.40;32.60;;;;;;;1.49;85.95;100796.41;105411;1282;22736;-69
2022/11/25 11:25:27;;;;;;;75.10;33.50;;;;;;;1.51;86.06;100800.02;105400;1303;24226;-69
2022/11/25 11:28:00;;;;;;;72.50;32.10;;;;;;;1.52;86.22;100799.51;105402;1303;22666;-69
2022/11/25 11:30:36;;;;;;;71.30;32.90;;;;;;;1.56;86.24;100797.81;105418;1281;22515;-69
2022/11/25 11:33:35;;;;;;;73.20;34.00;;;;;;;1.58;86.26;100802.48;105434;1281;22469;-71
2022/11/25 11:36:34;;;;;;;73.30;34.40;;;;;;;1.55;86.21;100797.98;105427;1303;22456;-69
2022/11/25 11:39:28;;;;;;;74.50;33.20;;;;;;;1.55;86.27;100802.11;105415;1303;22475;-70
2022/11/25 11:42:07;;;;;;;75.50;34.40;;;;;;;1.57;86.22;100800.22;105399;1303;22451;-69
2022/11/25 11:44:54;;;;;;;70.20;34.10;;;;;;;1.61;86.14;100799.73;105457;1303;22461;-69
2022/11/25 11:47:34;;;;;;;67.70;31.90;;;;;;;1.65;86.03;100800.80;105418;1291;23971;-70
2022/11/25 12:01:21;;;;;;;17.60;10.40;;;;;;;13.44;95.38;100700.52;98135;1345;5722756;-91
2022/11/25 12:04:00;;;;;;;17.90;11.60;;;;;;;15.01;85.57;100695.71;101596;1325;443818;-91
2022/11/25 12:07:06;;;;;;;15.70;10.60;;;;;;;16.18;80.12;100701.05;101250;1348;545731;-88
2022/11/25 12:09:44;;;;;;;16.10;10.50;;;;;;;16.97;76.16;100701.44;103815;1322;37755;-89
2022/11/25 12:12:20;;;;;;;14.20;9.90;;;;;;;17.70;72.70;100697.38;103799;1322;37123;-88
2022/11/25 12:15:01;;;;;;;15.80;10.90;;;;;;;18.36;69.70;100696.18;104106;1322;37103;-89
2022/11/25 12:17:44;;;;;;;15.50;11.00;;;;;;;19.01;67.17;100691.86;104040;1319;37029;-88